sensor_id;sensor_type;location;lat;lon;timestamp;temperature;humidity
68439;SHT31;55421;51.600;5.718;2023-04-19T00:01:09;10.95;70.96
68439;SHT31;55421;51.600;5.718;2023-04-19T00:03:36;10.97;70.99
68439;SHT31;55421;51.600;5.718;2023-04-19T00:06:02;10.97;70.93
68439;SHT31;55421;51.600;5.718;2023-04-19T00:08:29;10.98;70.91
68439;SHT31;55421;51.600;5.718;2023-04-19T00:10:55;10.97;71.03
68439;SHT31;55421;51.600;5.718;2023-04-19T00:13:22;10.96;71.12
68439;SHT31;55421;51.600;5.718;2023-04-19T00:15:48;10.96;71.16
68439;SHT31;55421;51.600;5.718;2023-04-19T00:18:15;10.96;71.20
68439;SHT31;55421;51.600;5.718;2023-04-19T00:20:41;10.96;71.28
68439;SHT31;55421;51.600;5.718;2023-04-19T00:23:08;10.98;71.28
68439;SHT31;55421;51.600;5.718;2023-04-19T00:25:34;11.00;71.28
68439;SHT31;55421;51.600;5.718;2023-04-19T00:28:01;11.00;71.27
68439;SHT31;55421;51.600;5.718;2023-04-19T00:30:27;11.00;71.29
68439;SHT31;55421;51.600;5.718;2023-04-19T00:32:53;10.99;71.30
68439;SHT31;55421;51.600;5.718;2023-04-19T00:35:20;10.98;71.34
68439;SHT31;55421;51.600;5.718;2023-04-19T00:37:46;10.97;71.44
68439;SHT31;55421;51.600;5.718;2023-04-19T00:40:13;10.97;71.49
68439;SHT31;55421;51.600;5.718;2023-04-19T00:42:41;10.98;71.55
68439;SHT31;55421;51.600;5.718;2023-04-19T00:45:08;10.97;71.58
68439;SHT31;55421;51.600;5.718;2023-04-19T00:47:35;10.97;71.60
68439;SHT31;55421;51.600;5.718;2023-04-19T00:50:02;10.97;71.61
68439;SHT31;55421;51.600;5.718;2023-04-19T00:52:30;10.98;71.68
68439;SHT31;55421;51.600;5.718;2023-04-19T00:54:59;10.98;71.77
68439;SHT31;55421;51.600;5.718;2023-04-19T00:57:27;10.98;71.80
68439;SHT31;55421;51.600;5.718;2023-04-19T00:59:55;10.98;71.87
68439;SHT31;55421;51.600;5.718;2023-04-19T01:02:23;10.97;71.90
68439;SHT31;55421;51.600;5.718;2023-04-19T01:04:49;10.96;71.98
68439;SHT31;55421;51.600;5.718;2023-04-19T01:07:16;10.95;72.07
68439;SHT31;55421;51.600;5.718;2023-04-19T01:09:44;10.95;72.16
68439;SHT31;55421;51.600;5.718;2023-04-19T01:12:11;10.97;72.26
68439;SHT31;55421;51.600;5.718;2023-04-19T01:14:38;11.00;72.36
68439;SHT31;55421;51.600;5.718;2023-04-19T01:17:06;11.02;72.44
68439;SHT31;55421;51.600;5.718;2023-04-19T01:19:33;11.04;72.52
68439;SHT31;55421;51.600;5.718;2023-04-19T01:22:01;11.06;72.58
68439;SHT31;55421;51.600;5.718;2023-04-19T01:24:29;11.07;72.63
68439;SHT31;55421;51.600;5.718;2023-04-19T01:26:56;11.07;72.71
68439;SHT31;55421;51.600;5.718;2023-04-19T01:29:23;11.09;72.79
68439;SHT31;55421;51.600;5.718;2023-04-19T01:31:49;11.10;72.90
68439;SHT31;55421;51.600;5.718;2023-04-19T01:34:18;11.10;72.98
68439;SHT31;55421;51.600;5.718;2023-04-19T01:36:45;11.11;73.08
68439;SHT31;55421;51.600;5.718;2023-04-19T01:39:11;11.12;73.17
68439;SHT31;55421;51.600;5.718;2023-04-19T01:41:38;11.15;73.28
68439;SHT31;55421;51.600;5.718;2023-04-19T01:44:04;11.16;73.34
68439;SHT31;55421;51.600;5.718;2023-04-19T01:46:31;11.17;73.40
68439;SHT31;55421;51.600;5.718;2023-04-19T01:48:57;11.19;73.48
68439;SHT31;55421;51.600;5.718;2023-04-19T01:51:23;11.19;73.53
68439;SHT31;55421;51.600;5.718;2023-04-19T01:53:50;11.21;73.59
68439;SHT31;55421;51.600;5.718;2023-04-19T01:56:19;11.22;73.59
68439;SHT31;55421;51.600;5.718;2023-04-19T01:58:46;11.21;73.60
68439;SHT31;55421;51.600;5.718;2023-04-19T02:01:13;11.19;73.60
68439;SHT31;55421;51.600;5.718;2023-04-19T02:03:39;11.18;73.66
68439;SHT31;55421;51.600;5.718;2023-04-19T02:06:09;11.15;73.71
68439;SHT31;55421;51.600;5.718;2023-04-19T02:08:39;11.14;73.79
68439;SHT31;55421;51.600;5.718;2023-04-19T02:11:10;11.12;73.88
68439;SHT31;55421;51.600;5.718;2023-04-19T02:13:42;11.11;73.90
68439;SHT31;55421;51.600;5.718;2023-04-19T02:16:08;11.11;73.91
68439;SHT31;55421;51.600;5.718;2023-04-19T02:18:36;11.12;73.96
68439;SHT31;55421;51.600;5.718;2023-04-19T02:21:04;11.12;74.00
68439;SHT31;55421;51.600;5.718;2023-04-19T02:23:33;11.13;73.99
68439;SHT31;55421;51.600;5.718;2023-04-19T02:26:00;11.16;73.98
68439;SHT31;55421;51.600;5.718;2023-04-19T02:28:28;11.17;73.94
68439;SHT31;55421;51.600;5.718;2023-04-19T02:30:57;11.19;73.97
68439;SHT31;55421;51.600;5.718;2023-04-19T02:33:24;11.20;73.99
68439;SHT31;55421;51.600;5.718;2023-04-19T02:35:52;11.20;74.00
68439;SHT31;55421;51.600;5.718;2023-04-19T02:38:18;11.21;74.00
68439;SHT31;55421;51.600;5.718;2023-04-19T02:40:45;11.21;74.00
68439;SHT31;55421;51.600;5.718;2023-04-19T02:43:11;11.22;74.00
68439;SHT31;55421;51.600;5.718;2023-04-19T02:45:37;11.22;74.00
68439;SHT31;55421;51.600;5.718;2023-04-19T02:48:04;11.21;74.02
68439;SHT31;55421;51.600;5.718;2023-04-19T02:50:31;11.20;74.09
68439;SHT31;55421;51.600;5.718;2023-04-19T02:52:58;11.17;74.10
68439;SHT31;55421;51.600;5.718;2023-04-19T02:55:24;11.15;74.15
68439;SHT31;55421;51.600;5.718;2023-04-19T02:57:51;11.13;74.20
68439;SHT31;55421;51.600;5.718;2023-04-19T03:00:17;11.13;74.20
68439;SHT31;55421;51.600;5.718;2023-04-19T03:02:44;11.10;74.21
68439;SHT31;55421;51.600;5.718;2023-04-19T03:05:10;11.08;74.24
68439;SHT31;55421;51.600;5.718;2023-04-19T03:07:37;11.05;74.30
68439;SHT31;55421;51.600;5.718;2023-04-19T03:10:03;11.04;74.31
68439;SHT31;55421;51.600;5.718;2023-04-19T03:12:31;11.02;74.40
68439;SHT31;55421;51.600;5.718;2023-04-19T03:14:57;11.01;74.40
68439;SHT31;55421;51.600;5.718;2023-04-19T03:17:25;11.02;74.46
68439;SHT31;55421;51.600;5.718;2023-04-19T03:19:52;11.01;74.50
68439;SHT31;55421;51.600;5.718;2023-04-19T03:22:19;11.02;74.50
68439;SHT31;55421;51.600;5.718;2023-04-19T03:24:45;11.00;74.50
68439;SHT31;55421;51.600;5.718;2023-04-19T03:27:11;10.98;74.49
68439;SHT31;55421;51.600;5.718;2023-04-19T03:29:38;10.96;74.48
68439;SHT31;55421;51.600;5.718;2023-04-19T03:32:05;10.94;74.50
68439;SHT31;55421;51.600;5.718;2023-04-19T03:34:32;10.94;74.52
68439;SHT31;55421;51.600;5.718;2023-04-19T03:36:59;10.92;74.59
68439;SHT31;55421;51.600;5.718;2023-04-19T03:39:25;10.92;74.62
68439;SHT31;55421;51.600;5.718;2023-04-19T03:41:53;10.91;74.69
68439;SHT31;55421;51.600;5.718;2023-04-19T03:44:19;10.90;74.70
68439;SHT31;55421;51.600;5.718;2023-04-19T03:46:46;10.88;74.64
68439;SHT31;55421;51.600;5.718;2023-04-19T03:49:13;10.87;74.61
68439;SHT31;55421;51.600;5.718;2023-04-19T03:51:40;10.86;74.61
68439;SHT31;55421;51.600;5.718;2023-04-19T03:54:06;10.84;74.60
68439;SHT31;55421;51.600;5.718;2023-04-19T03:56:33;10.81;74.60
68439;SHT31;55421;51.600;5.718;2023-04-19T03:58:59;10.77;74.60
68439;SHT31;55421;51.600;5.718;2023-04-19T04:01:26;10.75;74.62
68439;SHT31;55421;51.600;5.718;2023-04-19T04:03:53;10.72;74.68
68439;SHT31;55421;51.600;5.718;2023-04-19T04:06:19;10.70;74.69
68439;SHT31;55421;51.600;5.718;2023-04-19T04:08:46;10.67;74.67
68439;SHT31;55421;51.600;5.718;2023-04-19T04:11:12;10.63;74.60
68439;SHT31;55421;51.600;5.718;2023-04-19T04:13:39;10.60;74.59
68439;SHT31;55421;51.600;5.718;2023-04-19T04:16:05;10.55;74.51
68439;SHT31;55421;51.600;5.718;2023-04-19T04:18:32;10.49;74.50
68439;SHT31;55421;51.600;5.718;2023-04-19T04:20:58;10.44;74.50
68439;SHT31;55421;51.600;5.718;2023-04-19T04:23:25;10.40;74.46
68439;SHT31;55421;51.600;5.718;2023-04-19T04:25:55;10.34;74.41
68439;SHT31;55421;51.600;5.718;2023-04-19T04:28:26;10.29;74.40
68439;SHT31;55421;51.600;5.718;2023-04-19T04:30:54;10.23;74.40
68439;SHT31;55421;51.600;5.718;2023-04-19T04:33:26;10.17;74.40
68439;SHT31;55421;51.600;5.718;2023-04-19T04:35:53;10.12;74.44
68439;SHT31;55421;51.600;5.718;2023-04-19T04:38:22;10.10;74.45
68439;SHT31;55421;51.600;5.718;2023-04-19T04:40:49;10.05;74.50
68439;SHT31;55421;51.600;5.718;2023-04-19T04:43:23;10.03;74.50
68439;SHT31;55421;51.600;5.718;2023-04-19T04:45:54;10.01;74.50
68439;SHT31;55421;51.600;5.718;2023-04-19T04:48:22;9.99;74.50
68439;SHT31;55421;51.600;5.718;2023-04-19T04:50:49;9.96;74.49
68439;SHT31;55421;51.600;5.718;2023-04-19T04:53:15;9.95;74.48
68439;SHT31;55421;51.600;5.718;2023-04-19T04:55:42;9.93;74.44
68439;SHT31;55421;51.600;5.718;2023-04-19T04:58:08;9.91;74.48
68439;SHT31;55421;51.600;5.718;2023-04-19T05:00:35;9.90;74.48
68439;SHT31;55421;51.600;5.718;2023-04-19T05:03:02;9.88;74.41
68439;SHT31;55421;51.600;5.718;2023-04-19T05:05:28;9.85;74.40
68439;SHT31;55421;51.600;5.718;2023-04-19T05:07:55;9.82;74.40
68439;SHT31;55421;51.600;5.718;2023-04-19T05:10:22;9.79;74.40
68439;SHT31;55421;51.600;5.718;2023-04-19T05:12:48;9.77;74.40
68439;SHT31;55421;51.600;5.718;2023-04-19T05:15:15;9.76;74.43
68439;SHT31;55421;51.600;5.718;2023-04-19T05:17:41;9.75;74.42
68439;SHT31;55421;51.600;5.718;2023-04-19T05:20:08;9.74;74.40
68439;SHT31;55421;51.600;5.718;2023-04-19T05:22:35;9.76;74.39
68439;SHT31;55421;51.600;5.718;2023-04-19T05:25:03;9.77;74.39
68439;SHT31;55421;51.600;5.718;2023-04-19T05:27:30;9.80;74.34
68439;SHT31;55421;51.600;5.718;2023-04-19T05:29:57;9.83;74.30
68439;SHT31;55421;51.600;5.718;2023-04-19T05:32:23;9.86;74.20
68439;SHT31;55421;51.600;5.718;2023-04-19T05:34:50;9.91;74.16
68439;SHT31;55421;51.600;5.718;2023-04-19T05:37:16;9.94;74.10
68439;SHT31;55421;51.600;5.718;2023-04-19T05:39:43;9.99;74.03
68439;SHT31;55421;51.600;5.718;2023-04-19T05:42:09;10.04;73.71
68439;SHT31;55421;51.600;5.718;2023-04-19T05:44:36;10.08;73.44
68439;SHT31;55421;51.600;5.718;2023-04-19T05:47:04;10.14;73.15
68439;SHT31;55421;51.600;5.718;2023-04-19T05:49:31;10.19;72.90
68439;SHT31;55421;51.600;5.718;2023-04-19T05:51:57;10.23;72.43
68439;SHT31;55421;51.600;5.718;2023-04-19T05:54:24;10.26;72.04
68439;SHT31;55421;51.600;5.718;2023-04-19T05:56:51;10.28;71.85
68439;SHT31;55421;51.600;5.718;2023-04-19T05:59:18;10.29;71.48
68439;SHT31;55421;51.600;5.718;2023-04-19T06:01:44;10.34;71.18
68439;SHT31;55421;51.600;5.718;2023-04-19T06:04:11;10.40;70.74
68439;SHT31;55421;51.600;5.718;2023-04-19T06:06:37;10.49;70.31
68439;SHT31;55421;51.600;5.718;2023-04-19T06:09:05;10.56;70.06
68439;SHT31;55421;51.600;5.718;2023-04-19T06:11:32;10.58;69.78
68439;SHT31;55421;51.600;5.718;2023-04-19T06:13:59;10.62;69.24
68439;SHT31;55421;51.600;5.718;2023-04-19T06:16:25;10.66;68.84
68439;SHT31;55421;51.600;5.718;2023-04-19T06:18:54;10.70;68.50
68439;SHT31;55421;51.600;5.718;2023-04-19T06:21:20;10.72;68.02
68439;SHT31;55421;51.600;5.718;2023-04-19T06:23:47;10.74;68.00
68439;SHT31;55421;51.600;5.718;2023-04-19T06:26:13;10.77;67.93
68439;SHT31;55421;51.600;5.718;2023-04-19T06:28:40;10.79;67.59
68439;SHT31;55421;51.600;5.718;2023-04-19T06:31:06;10.80;67.31
68439;SHT31;55421;51.600;5.718;2023-04-19T06:33:33;10.83;67.00
68439;SHT31;55421;51.600;5.718;2023-04-19T06:35:59;10.89;66.81
68439;SHT31;55421;51.600;5.718;2023-04-19T06:38:26;10.94;66.41
68439;SHT31;55421;51.600;5.718;2023-04-19T06:40:52;11.01;66.39
68439;SHT31;55421;51.600;5.718;2023-04-19T06:43:18;11.05;65.56
68439;SHT31;55421;51.600;5.718;2023-04-19T06:45:46;11.07;65.28
68439;SHT31;55421;51.600;5.718;2023-04-19T06:48:13;11.10;65.29
68439;SHT31;55421;51.600;5.718;2023-04-19T06:50:39;11.12;64.87
68439;SHT31;55421;51.600;5.718;2023-04-19T06:53:06;11.15;64.95
68439;SHT31;55421;51.600;5.718;2023-04-19T06:55:32;11.20;64.74
68439;SHT31;55421;51.600;5.718;2023-04-19T06:57:59;11.24;64.43
68439;SHT31;55421;51.600;5.718;2023-04-19T07:00:25;11.28;63.94
68439;SHT31;55421;51.600;5.718;2023-04-19T07:02:52;11.34;64.05
68439;SHT31;55421;51.600;5.718;2023-04-19T07:05:18;11.40;63.74
68439;SHT31;55421;51.600;5.718;2023-04-19T07:07:45;11.44;63.00
68439;SHT31;55421;51.600;5.718;2023-04-19T07:10:11;11.47;62.54
68439;SHT31;55421;51.600;5.718;2023-04-19T07:12:38;11.49;61.89
68439;SHT31;55421;51.600;5.718;2023-04-19T07:15:05;11.51;61.56
68439;SHT31;55421;51.600;5.718;2023-04-19T07:17:33;11.56;61.23
68439;SHT31;55421;51.600;5.718;2023-04-19T07:20:01;11.57;60.82
68439;SHT31;55421;51.600;5.718;2023-04-19T07:22:31;11.63;61.24
68439;SHT31;55421;51.600;5.718;2023-04-19T07:24:58;11.68;60.84
68439;SHT31;55421;51.600;5.718;2023-04-19T07:27:25;11.73;60.81
68439;SHT31;55421;51.600;5.718;2023-04-19T07:29:52;11.79;61.05
68439;SHT31;55421;51.600;5.718;2023-04-19T07:32:18;11.84;60.89
68439;SHT31;55421;51.600;5.718;2023-04-19T07:34:46;11.93;60.61
68439;SHT31;55421;51.600;5.718;2023-04-19T07:37:13;11.97;59.78
68439;SHT31;55421;51.600;5.718;2023-04-19T07:39:39;11.98;59.40
68439;SHT31;55421;51.600;5.718;2023-04-19T07:42:06;12.02;59.43
68439;SHT31;55421;51.600;5.718;2023-04-19T07:44:33;12.09;59.17
68439;SHT31;55421;51.600;5.718;2023-04-19T07:47:00;12.14;59.05
68439;SHT31;55421;51.600;5.718;2023-04-19T07:49:26;12.19;58.36
68439;SHT31;55421;51.600;5.718;2023-04-19T07:51:54;12.22;57.83
68439;SHT31;55421;51.600;5.718;2023-04-19T07:54:21;12.24;57.69
68439;SHT31;55421;51.600;5.718;2023-04-19T07:56:47;12.30;57.52
68439;SHT31;55421;51.600;5.718;2023-04-19T07:59:14;12.34;57.19
68439;SHT31;55421;51.600;5.718;2023-04-19T08:01:40;12.40;56.76
68439;SHT31;55421;51.600;5.718;2023-04-19T08:04:08;12.42;56.36
68439;SHT31;55421;51.600;5.718;2023-04-19T08:06:34;12.47;56.46
68439;SHT31;55421;51.600;5.718;2023-04-19T08:09:03;12.55;56.05
68439;SHT31;55421;51.600;5.718;2023-04-19T08:11:29;12.58;55.20
68439;SHT31;55421;51.600;5.718;2023-04-19T08:13:56;12.60;54.89
68439;SHT31;55421;51.600;5.718;2023-04-19T08:16:23;12.62;54.06
68439;SHT31;55421;51.600;5.718;2023-04-19T08:18:49;12.63;53.49
68439;SHT31;55421;51.600;5.718;2023-04-19T08:21:17;12.68;54.19
68439;SHT31;55421;51.600;5.718;2023-04-19T08:23:43;12.77;54.02
68439;SHT31;55421;51.600;5.718;2023-04-19T08:26:10;12.83;53.83
68439;SHT31;55421;51.600;5.718;2023-04-19T08:28:37;12.92;53.63
68439;SHT31;55421;51.600;5.718;2023-04-19T08:31:24;12.97;53.13
68439;SHT31;55421;51.600;5.718;2023-04-19T08:33:51;13.02;52.60
68439;SHT31;55421;51.600;5.718;2023-04-19T08:36:17;13.05;52.07
68439;SHT31;55421;51.600;5.718;2023-04-19T08:38:44;13.11;52.36
68439;SHT31;55421;51.600;5.718;2023-04-19T08:41:10;13.18;52.16
68439;SHT31;55421;51.600;5.718;2023-04-19T08:43:38;13.21;50.86
68439;SHT31;55421;51.600;5.718;2023-04-19T08:46:09;13.21;50.37
68439;SHT31;55421;51.600;5.718;2023-04-19T08:48:37;13.22;50.05
68439;SHT31;55421;51.600;5.718;2023-04-19T08:51:06;13.23;49.65
68439;SHT31;55421;51.600;5.718;2023-04-19T08:53:34;13.27;49.72
68439;SHT31;55421;51.600;5.718;2023-04-19T08:56:02;13.30;49.07
68439;SHT31;55421;51.600;5.718;2023-04-19T08:58:29;13.33;49.24
68439;SHT31;55421;51.600;5.718;2023-04-19T09:00:58;13.39;49.22
68439;SHT31;55421;51.600;5.718;2023-04-19T09:03:25;13.45;49.21
68439;SHT31;55421;51.600;5.718;2023-04-19T09:05:52;13.51;48.89
68439;SHT31;55421;51.600;5.718;2023-04-19T09:08:26;13.55;48.91
68439;SHT31;55421;51.600;5.718;2023-04-19T09:11:10;13.56;47.33
68439;SHT31;55421;51.600;5.718;2023-04-19T09:13:36;13.54;47.37
68439;SHT31;55421;51.600;5.718;2023-04-19T09:16:05;13.58;47.70
68439;SHT31;55421;51.600;5.718;2023-04-19T09:18:33;13.62;47.70
68439;SHT31;55421;51.600;5.718;2023-04-19T09:21:30;13.64;47.77
68439;SHT31;55421;51.600;5.718;2023-04-19T09:23:58;13.70;48.50
68439;SHT31;55421;51.600;5.718;2023-04-19T09:26:25;13.76;48.09
68439;SHT31;55421;51.600;5.718;2023-04-19T09:28:55;13.77;46.42
68439;SHT31;55421;51.600;5.718;2023-04-19T09:31:36;13.69;45.61
68439;SHT31;55421;51.600;5.718;2023-04-19T09:34:13;13.64;46.15
68439;SHT31;55421;51.600;5.718;2023-04-19T09:36:44;13.63;46.71
68439;SHT31;55421;51.600;5.718;2023-04-19T09:39:11;13.68;46.69
68439;SHT31;55421;51.600;5.718;2023-04-19T09:41:52;13.70;46.49
68439;SHT31;55421;51.600;5.718;2023-04-19T09:44:20;13.76;46.87
68439;SHT31;55421;51.600;5.718;2023-04-19T09:46:47;13.79;46.73
68439;SHT31;55421;51.600;5.718;2023-04-19T09:49:17;13.88;46.94
68439;SHT31;55421;51.600;5.718;2023-04-19T09:51:50;13.94;45.60
68439;SHT31;55421;51.600;5.718;2023-04-19T09:54:20;14.00;45.53
68439;SHT31;55421;51.600;5.718;2023-04-19T09:56:52;14.05;45.15
68439;SHT31;55421;51.600;5.718;2023-04-19T09:59:19;14.09;44.40
68439;SHT31;55421;51.600;5.718;2023-04-19T10:01:55;14.10;44.45
68439;SHT31;55421;51.600;5.718;2023-04-19T10:04:25;14.15;44.74
68439;SHT31;55421;51.600;5.718;2023-04-19T10:06:53;14.22;44.70
68439;SHT31;55421;51.600;5.718;2023-04-19T10:09:20;14.28;44.74
68439;SHT31;55421;51.600;5.718;2023-04-19T10:11:50;14.29;43.62
68439;SHT31;55421;51.600;5.718;2023-04-19T10:14:21;14.28;43.28
68439;SHT31;55421;51.600;5.718;2023-04-19T10:16:50;14.30;42.78
68439;SHT31;55421;51.600;5.718;2023-04-19T10:19:17;14.31;42.67
68439;SHT31;55421;51.600;5.718;2023-04-19T10:21:49;14.31;42.70
68439;SHT31;55421;51.600;5.718;2023-04-19T10:24:16;14.38;42.63
68439;SHT31;55421;51.600;5.718;2023-04-19T10:32:37;14.56;41.69
68439;SHT31;55421;51.600;5.718;2023-04-19T10:35:27;14.64;41.55
68439;SHT31;55421;51.600;5.718;2023-04-19T10:43:18;14.69;39.47
68439;SHT31;55421;51.600;5.718;2023-04-19T10:45:45;14.66;39.93
68439;SHT31;55421;51.600;5.718;2023-04-19T10:56:14;14.88;42.10
68439;SHT31;55421;51.600;5.718;2023-04-19T11:01:31;14.89;41.70
68439;SHT31;55421;51.600;5.718;2023-04-19T11:04:05;14.93;41.84
68439;SHT31;55421;51.600;5.718;2023-04-19T11:06:32;14.96;41.48
68439;SHT31;55421;51.600;5.718;2023-04-19T11:09:00;14.99;41.31
68439;SHT31;55421;51.600;5.718;2023-04-19T11:11:35;15.00;41.59
68439;SHT31;55421;51.600;5.718;2023-04-19T11:14:02;15.06;42.29
68439;SHT31;55421;51.600;5.718;2023-04-19T11:16:29;15.14;41.59
68439;SHT31;55421;51.600;5.718;2023-04-19T11:18:56;15.16;40.70
68439;SHT31;55421;51.600;5.718;2023-04-19T11:21:22;15.22;40.14
68439;SHT31;55421;51.600;5.718;2023-04-19T11:24:04;15.27;40.37
68439;SHT31;55421;51.600;5.718;2023-04-19T11:26:33;15.31;39.96
68439;SHT31;55421;51.600;5.718;2023-04-19T11:28:59;15.28;39.40
68439;SHT31;55421;51.600;5.718;2023-04-19T11:31:27;15.27;39.90
68439;SHT31;55421;51.600;5.718;2023-04-19T11:33:53;15.34;40.29
68439;SHT31;55421;51.600;5.718;2023-04-19T11:36:20;15.40;40.07
68439;SHT31;55421;51.600;5.718;2023-04-19T11:38:47;15.48;38.63
68439;SHT31;55421;51.600;5.718;2023-04-19T11:41:14;15.53;37.63
68439;SHT31;55421;51.600;5.718;2023-04-19T11:43:41;15.61;37.93
68439;SHT31;55421;51.600;5.718;2023-04-19T11:46:10;15.69;37.79
68439;SHT31;55421;51.600;5.718;2023-04-19T11:48:38;15.75;37.90
68439;SHT31;55421;51.600;5.718;2023-04-19T11:51:19;15.82;39.10
68439;SHT31;55421;51.600;5.718;2023-04-19T11:53:46;15.90;39.07
68439;SHT31;55421;51.600;5.718;2023-04-19T11:56:12;15.96;39.29
68439;SHT31;55421;51.600;5.718;2023-04-19T11:58:43;15.97;38.59
68439;SHT31;55421;51.600;5.718;2023-04-19T12:01:15;15.95;39.24
68439;SHT31;55421;51.600;5.718;2023-04-19T12:03:49;15.98;38.68
68439;SHT31;55421;51.600;5.718;2023-04-19T12:06:25;15.95;37.57
68439;SHT31;55421;51.600;5.718;2023-04-19T12:08:54;15.91;37.82
68439;SHT31;55421;51.600;5.718;2023-04-19T12:11:23;15.95;37.59
68439;SHT31;55421;51.600;5.718;2023-04-19T12:16:38;15.97;36.94
68439;SHT31;55421;51.600;5.718;2023-04-19T12:19:12;15.98;36.30
68439;SHT31;55421;51.600;5.718;2023-04-19T12:21:42;15.95;36.11
68439;SHT31;55421;51.600;5.718;2023-04-19T12:24:09;15.95;36.24
68439;SHT31;55421;51.600;5.718;2023-04-19T12:26:41;15.98;35.43
68439;SHT31;55421;51.600;5.718;2023-04-19T12:29:20;15.90;33.89
68439;SHT31;55421;51.600;5.718;2023-04-19T12:31:46;15.82;33.92
68439;SHT31;55421;51.600;5.718;2023-04-19T12:34:13;15.83;33.18
68439;SHT31;55421;51.600;5.718;2023-04-19T12:36:39;15.86;33.57
68439;SHT31;55421;51.600;5.718;2023-04-19T12:39:06;15.91;33.38
68439;SHT31;55421;51.600;5.718;2023-04-19T12:41:33;15.99;33.56
68439;SHT31;55421;51.600;5.718;2023-04-19T12:43:59;16.07;33.53
68439;SHT31;55421;51.600;5.718;2023-04-19T12:46:26;16.11;32.75
68439;SHT31;55421;51.600;5.718;2023-04-19T12:48:52;16.11;33.21
68439;SHT31;55421;51.600;5.718;2023-04-19T12:51:19;16.10;32.93
68439;SHT31;55421;51.600;5.718;2023-04-19T12:53:48;16.10;33.19
68439;SHT31;55421;51.600;5.718;2023-04-19T12:56:16;16.06;32.96
68439;SHT31;55421;51.600;5.718;2023-04-19T12:58:42;16.07;32.99
68439;SHT31;55421;51.600;5.718;2023-04-19T13:01:09;16.08;32.36
68439;SHT31;55421;51.600;5.718;2023-04-19T13:03:36;16.07;32.62
68439;SHT31;55421;51.600;5.718;2023-04-19T13:06:02;16.05;32.38
68439;SHT31;55421;51.600;5.718;2023-04-19T13:08:29;15.96;32.62
68439;SHT31;55421;51.600;5.718;2023-04-19T13:10:56;15.93;32.22
68439;SHT31;55421;51.600;5.718;2023-04-19T13:13:24;15.90;32.81
68439;SHT31;55421;51.600;5.718;2023-04-19T13:15:51;15.93;33.41
68439;SHT31;55421;51.600;5.718;2023-04-19T13:18:17;15.92;33.19
68439;SHT31;55421;51.600;5.718;2023-04-19T13:20:47;15.95;33.90
68439;SHT31;55421;51.600;5.718;2023-04-19T13:23:14;15.99;33.93
68439;SHT31;55421;51.600;5.718;2023-04-19T13:25:40;16.01;33.46
68439;SHT31;55421;51.600;5.718;2023-04-19T13:28:07;16.00;33.33
68439;SHT31;55421;51.600;5.718;2023-04-19T13:30:33;15.99;33.46
68439;SHT31;55421;51.600;5.718;2023-04-19T13:33:00;16.02;34.06
68439;SHT31;55421;51.600;5.718;2023-04-19T13:35:26;16.07;33.45
68439;SHT31;55421;51.600;5.718;2023-04-19T13:37:53;16.06;33.47
68439;SHT31;55421;51.600;5.718;2023-04-19T13:40:19;16.07;33.63
68439;SHT31;55421;51.600;5.718;2023-04-19T13:42:45;16.05;33.80
68439;SHT31;55421;51.600;5.718;2023-04-19T13:45:12;16.07;34.27
68439;SHT31;55421;51.600;5.718;2023-04-19T13:47:38;16.10;34.25
68439;SHT31;55421;51.600;5.718;2023-04-19T13:50:05;16.13;34.14
68439;SHT31;55421;51.600;5.718;2023-04-19T13:52:32;16.11;34.49
68439;SHT31;55421;51.600;5.718;2023-04-19T13:54:59;16.15;35.43
68439;SHT31;55421;51.600;5.718;2023-04-19T13:57:25;16.23;35.29
68439;SHT31;55421;51.600;5.718;2023-04-19T13:59:52;16.29;35.47
68439;SHT31;55421;51.600;5.718;2023-04-19T14:02:18;16.34;35.01
68439;SHT31;55421;51.600;5.718;2023-04-19T14:04:45;16.35;34.34
68439;SHT31;55421;51.600;5.718;2023-04-19T14:07:11;16.31;34.82
68439;SHT31;55421;51.600;5.718;2023-04-19T14:09:38;16.31;34.11
68439;SHT31;55421;51.600;5.718;2023-04-19T14:12:05;16.26;33.79
68439;SHT31;55421;51.600;5.718;2023-04-19T14:14:33;16.22;33.90
68439;SHT31;55421;51.600;5.718;2023-04-19T14:17:00;16.19;33.49
68439;SHT31;55421;51.600;5.718;2023-04-19T14:19:26;16.19;33.85
68439;SHT31;55421;51.600;5.718;2023-04-19T14:21:54;16.22;34.19
68439;SHT31;55421;51.600;5.718;2023-04-19T14:24:20;16.28;35.01
68439;SHT31;55421;51.600;5.718;2023-04-19T14:26:47;16.31;35.04
68439;SHT31;55421;51.600;5.718;2023-04-19T14:29:13;16.30;35.11
68439;SHT31;55421;51.600;5.718;2023-04-19T14:31:40;16.28;35.28
68439;SHT31;55421;51.600;5.718;2023-04-19T14:34:06;16.22;34.63
68439;SHT31;55421;51.600;5.718;2023-04-19T14:36:32;16.14;34.80
68439;SHT31;55421;51.600;5.718;2023-04-19T14:38:59;16.11;35.44
68439;SHT31;55421;51.600;5.718;2023-04-19T14:41:25;16.14;36.13
68439;SHT31;55421;51.600;5.718;2023-04-19T14:43:52;16.20;36.73
68439;SHT31;55421;51.600;5.718;2023-04-19T14:46:20;16.21;36.16
68439;SHT31;55421;51.600;5.718;2023-04-19T14:48:46;16.18;35.44
68439;SHT31;55421;51.600;5.718;2023-04-19T14:51:13;16.15;35.45
68439;SHT31;55421;51.600;5.718;2023-04-19T14:53:39;16.15;35.03
68439;SHT31;55421;51.600;5.718;2023-04-19T14:56:06;16.13;34.74
68439;SHT31;55421;51.600;5.718;2023-04-19T14:58:33;16.14;34.52
68439;SHT31;55421;51.600;5.718;2023-04-19T15:01:08;16.16;35.01
68439;SHT31;55421;51.600;5.718;2023-04-19T15:03:38;16.15;34.39
68439;SHT31;55421;51.600;5.718;2023-04-19T15:06:06;16.13;34.88
68439;SHT31;55421;51.600;5.718;2023-04-19T15:08:33;16.13;35.19
68439;SHT31;55421;51.600;5.718;2023-04-19T15:10:59;16.14;35.54
68439;SHT31;55421;51.600;5.718;2023-04-19T15:13:26;16.16;36.14
68439;SHT31;55421;51.600;5.718;2023-04-19T15:15:54;16.21;35.96
68439;SHT31;55421;51.600;5.718;2023-04-19T15:18:22;16.19;35.56
68439;SHT31;55421;51.600;5.718;2023-04-19T15:20:49;16.15;35.35
68439;SHT31;55421;51.600;5.718;2023-04-19T15:23:15;16.11;35.52
68439;SHT31;55421;51.600;5.718;2023-04-19T15:25:43;16.12;35.68
68439;SHT31;55421;51.600;5.718;2023-04-19T15:28:09;16.13;35.18
68439;SHT31;55421;51.600;5.718;2023-04-19T15:30:36;16.09;34.99
68439;SHT31;55421;51.600;5.718;2023-04-19T15:33:02;16.06;35.10
68439;SHT31;55421;51.600;5.718;2023-04-19T15:35:29;16.03;35.62
68439;SHT31;55421;51.600;5.718;2023-04-19T15:37:57;16.00;35.91
68439;SHT31;55421;51.600;5.718;2023-04-19T15:40:23;15.98;36.76
68439;SHT31;55421;51.600;5.718;2023-04-19T15:42:50;15.99;37.33
68439;SHT31;55421;51.600;5.718;2023-04-19T15:45:16;15.99;36.62
68439;SHT31;55421;51.600;5.718;2023-04-19T15:47:43;15.97;36.63
68439;SHT31;55421;51.600;5.718;2023-04-19T15:50:10;15.93;36.85
68439;SHT31;55421;51.600;5.718;2023-04-19T15:52:36;15.95;37.17
68439;SHT31;55421;51.600;5.718;2023-04-19T15:55:03;15.94;37.12
68439;SHT31;55421;51.600;5.718;2023-04-19T15:57:30;15.95;37.14
68439;SHT31;55421;51.600;5.718;2023-04-19T15:59:57;15.94;37.11